sensor_id;sensor_type;location;lat;lon;timestamp;P1;durP1;ratioP1;P2;durP2;ratioP2
47021;SDS011;32779;52.264;6.154;2022-10-22T00:02:24;12.55;;;8.52;;
47021;SDS011;32779;52.264;6.154;2022-10-22T00:04:51;10.25;;;8.40;;
47021;SDS011;32779;52.264;6.154;2022-10-22T00:07:18;17.17;;;9.15;;
47021;SDS011;32779;52.264;6.154;2022-10-22T00:09:44;15.25;;;8.70;;
47021;SDS011;32779;52.264;6.154;2022-10-22T00:12:11;12.20;;;8.95;;
47021;SDS011;32779;52.264;6.154;2022-10-22T00:14:38;16.80;;;8.48;;
47021;SDS011;32779;52.264;6.154;2022-10-22T00:17:04;14.25;;;8.93;;
47021;SDS011;32779;52.264;6.154;2022-10-22T00:21:55;11.25;;;8.40;;
47021;SDS011;32779;52.264;6.154;2022-10-22T00:24:22;11.85;;;8.45;;
47021;SDS011;32779;52.264;6.154;2022-10-22T00:29:13;16.33;;;8.65;;
47021;SDS011;32779;52.264;6.154;2022-10-22T00:31:39;10.30;;;8.43;;
47021;SDS011;32779;52.264;6.154;2022-10-22T00:34:05;11.23;;;8.38;;
47021;SDS011;32779;52.264;6.154;2022-10-22T00:36:30;13.07;;;8.32;;
47021;SDS011;32779;52.264;6.154;2022-10-22T00:38:56;16.20;;;8.73;;
47021;SDS011;32779;52.264;6.154;2022-10-22T00:43:57;13.38;;;8.32;;
47021;SDS011;32779;52.264;6.154;2022-10-22T00:46:24;11.60;;;8.07;;
47021;SDS011;32779;52.264;6.154;2022-10-22T00:48:50;13.38;;;8.25;;
47021;SDS011;32779;52.264;6.154;2022-10-22T00:51:16;12.60;;;7.57;;
47021;SDS011;32779;52.264;6.154;2022-10-22T00:53:46;12.85;;;7.30;;
47021;SDS011;32779;52.264;6.154;2022-10-22T00:56:17;11.07;;;7.82;;
47021;SDS011;32779;52.264;6.154;2022-10-22T00:58:45;10.77;;;7.68;;
47021;SDS011;32779;52.264;6.154;2022-10-22T01:01:15;18.17;;;8.40;;
47021;SDS011;32779;52.264;6.154;2022-10-22T01:03:45;15.35;;;8.30;;
47021;SDS011;32779;52.264;6.154;2022-10-22T01:06:14;14.27;;;7.80;;
47021;SDS011;32779;52.264;6.154;2022-10-22T01:11:39;17.08;;;8.45;;
47021;SDS011;32779;52.264;6.154;2022-10-22T01:16:58;11.82;;;7.82;;
47021;SDS011;32779;52.264;6.154;2022-10-22T01:19:39;14.63;;;7.40;;
47021;SDS011;32779;52.264;6.154;2022-10-22T01:22:35;18.95;;;8.23;;
47021;SDS011;32779;52.264;6.154;2022-10-22T01:27:52;10.00;;;7.82;;
47021;SDS011;32779;52.264;6.154;2022-10-22T01:30:30;11.52;;;7.55;;
47021;SDS011;32779;52.264;6.154;2022-10-22T01:32:57;10.20;;;7.38;;
47021;SDS011;32779;52.264;6.154;2022-10-22T01:35:27;11.68;;;7.68;;
47021;SDS011;32779;52.264;6.154;2022-10-22T01:38:00;13.50;;;7.45;;
47021;SDS011;32779;52.264;6.154;2022-10-22T01:40:29;10.95;;;7.53;;
47021;SDS011;32779;52.264;6.154;2022-10-22T01:45:23;15.00;;;8.38;;
47021;SDS011;32779;52.264;6.154;2022-10-22T01:47:56;11.40;;;8.05;;
47021;SDS011;32779;52.264;6.154;2022-10-22T02:01:09;10.63;;;8.00;;
47021;SDS011;32779;52.264;6.154;2022-10-22T02:04:00;13.25;;;8.30;;
47021;SDS011;32779;52.264;6.154;2022-10-22T02:06:35;16.38;;;8.45;;
47021;SDS011;32779;52.264;6.154;2022-10-22T02:09:05;15.18;;;8.48;;
47021;SDS011;32779;52.264;6.154;2022-10-22T02:11:32;13.25;;;9.00;;
47021;SDS011;32779;52.264;6.154;2022-10-22T02:13:58;11.48;;;8.38;;
47021;SDS011;32779;52.264;6.154;2022-10-22T02:16:37;17.92;;;9.05;;
47021;SDS011;32779;52.264;6.154;2022-10-22T02:19:18;12.18;;;8.57;;
47021;SDS011;32779;52.264;6.154;2022-10-22T02:21:54;17.23;;;8.88;;
47021;SDS011;32779;52.264;6.154;2022-10-22T02:24:20;13.23;;;9.27;;
47021;SDS011;32779;52.264;6.154;2022-10-22T02:29:14;13.85;;;8.10;;
47021;SDS011;32779;52.264;6.154;2022-10-22T02:31:57;15.00;;;8.68;;
47021;SDS011;32779;52.264;6.154;2022-10-22T02:34:26;14.05;;;9.13;;
47021;SDS011;32779;52.264;6.154;2022-10-22T02:36:55;11.88;;;8.18;;
47021;SDS011;32779;52.264;6.154;2022-10-22T02:39:23;15.50;;;9.90;;
47021;SDS011;32779;52.264;6.154;2022-10-22T02:41:50;13.13;;;8.93;;
47021;SDS011;32779;52.264;6.154;2022-10-22T02:44:19;12.65;;;8.60;;
47021;SDS011;32779;52.264;6.154;2022-10-22T02:46:46;16.45;;;9.40;;
47021;SDS011;32779;52.264;6.154;2022-10-22T02:49:12;14.55;;;9.18;;
47021;SDS011;32779;52.264;6.154;2022-10-22T02:51:37;16.85;;;9.23;;
47021;SDS011;32779;52.264;6.154;2022-10-22T02:54:03;16.55;;;9.65;;
47021;SDS011;32779;52.264;6.154;2022-10-22T02:56:28;13.85;;;9.07;;
47021;SDS011;32779;52.264;6.154;2022-10-22T02:58:54;21.35;;;11.50;;
47021;SDS011;32779;52.264;6.154;2022-10-22T03:01:19;15.48;;;9.32;;
47021;SDS011;32779;52.264;6.154;2022-10-22T03:03:45;11.70;;;9.70;;
47021;SDS011;32779;52.264;6.154;2022-10-22T03:06:11;21.65;;;10.38;;
47021;SDS011;32779;52.264;6.154;2022-10-22T03:08:36;15.95;;;9.48;;
47021;SDS011;32779;52.264;6.154;2022-10-22T03:11:02;16.65;;;10.23;;
47021;SDS011;32779;52.264;6.154;2022-10-22T03:13:28;18.13;;;10.48;;
47021;SDS011;32779;52.264;6.154;2022-10-22T03:15:53;17.88;;;11.05;;
47021;SDS011;32779;52.264;6.154;2022-10-22T03:18:19;12.68;;;9.55;;
47021;SDS011;32779;52.264;6.154;2022-10-22T03:20:44;14.52;;;10.52;;
47021;SDS011;32779;52.264;6.154;2022-10-22T03:23:11;14.93;;;10.23;;
47021;SDS011;32779;52.264;6.154;2022-10-22T03:25:39;14.52;;;9.77;;
47021;SDS011;32779;52.264;6.154;2022-10-22T03:28:07;19.90;;;9.65;;
47021;SDS011;32779;52.264;6.154;2022-10-22T03:30:35;14.30;;;9.45;;
47021;SDS011;32779;52.264;6.154;2022-10-22T03:33:00;15.38;;;9.25;;
47021;SDS011;32779;52.264;6.154;2022-10-22T03:35:26;16.35;;;9.38;;
47021;SDS011;32779;52.264;6.154;2022-10-22T03:37:52;14.40;;;9.05;;
47021;SDS011;32779;52.264;6.154;2022-10-22T03:40:18;12.30;;;8.60;;
47021;SDS011;32779;52.264;6.154;2022-10-22T03:42:45;18.58;;;9.60;;
47021;SDS011;32779;52.264;6.154;2022-10-22T03:45:10;13.65;;;9.60;;
47021;SDS011;32779;52.264;6.154;2022-10-22T03:47:36;16.20;;;9.35;;
47021;SDS011;32779;52.264;6.154;2022-10-22T03:50:03;15.68;;;10.32;;
47021;SDS011;32779;52.264;6.154;2022-10-22T03:52:33;12.63;;;8.80;;
47021;SDS011;32779;52.264;6.154;2022-10-22T03:55:03;16.17;;;8.77;;
47021;SDS011;32779;52.264;6.154;2022-10-22T03:57:30;15.30;;;9.20;;
47021;SDS011;32779;52.264;6.154;2022-10-22T03:59:55;16.02;;;9.15;;
47021;SDS011;32779;52.264;6.154;2022-10-22T04:02:21;14.85;;;9.80;;
47021;SDS011;32779;52.264;6.154;2022-10-22T04:04:47;17.67;;;9.75;;
47021;SDS011;32779;52.264;6.154;2022-10-22T04:07:12;15.60;;;9.20;;
47021;SDS011;32779;52.264;6.154;2022-10-22T04:09:38;23.88;;;11.07;;
47021;SDS011;32779;52.264;6.154;2022-10-22T04:12:03;18.95;;;10.00;;
47021;SDS011;32779;52.264;6.154;2022-10-22T04:14:30;17.25;;;9.98;;
47021;SDS011;32779;52.264;6.154;2022-10-22T04:16:56;13.80;;;9.80;;
47021;SDS011;32779;52.264;6.154;2022-10-22T04:19:21;15.20;;;10.23;;
47021;SDS011;32779;52.264;6.154;2022-10-22T04:21:47;14.98;;;9.30;;
47021;SDS011;32779;52.264;6.154;2022-10-22T04:24:13;14.52;;;9.38;;
47021;SDS011;32779;52.264;6.154;2022-10-22T04:26:38;17.98;;;10.40;;
47021;SDS011;32779;52.264;6.154;2022-10-22T04:29:05;16.42;;;10.25;;
47021;SDS011;32779;52.264;6.154;2022-10-22T04:31:31;12.57;;;8.90;;
47021;SDS011;32779;52.264;6.154;2022-10-22T04:33:57;16.25;;;10.40;;
47021;SDS011;32779;52.264;6.154;2022-10-22T04:36:24;13.75;;;9.30;;
47021;SDS011;32779;52.264;6.154;2022-10-22T04:38:54;14.13;;;9.85;;
47021;SDS011;32779;52.264;6.154;2022-10-22T04:41:23;18.83;;;10.02;;
47021;SDS011;32779;52.264;6.154;2022-10-22T04:43:50;15.30;;;10.00;;
47021;SDS011;32779;52.264;6.154;2022-10-22T04:46:17;16.92;;;10.77;;
47021;SDS011;32779;52.264;6.154;2022-10-22T04:48:43;18.67;;;11.13;;
47021;SDS011;32779;52.264;6.154;2022-10-22T04:51:10;19.67;;;9.43;;
47021;SDS011;32779;52.264;6.154;2022-10-22T04:53:38;21.02;;;9.20;;
47021;SDS011;32779;52.264;6.154;2022-10-22T04:56:07;12.70;;;9.13;;
47021;SDS011;32779;52.264;6.154;2022-10-22T04:58:34;15.48;;;10.00;;
47021;SDS011;32779;52.264;6.154;2022-10-22T05:01:00;15.68;;;10.10;;
47021;SDS011;32779;52.264;6.154;2022-10-22T05:03:32;14.85;;;9.05;;
47021;SDS011;32779;52.264;6.154;2022-10-22T05:05:59;13.88;;;8.57;;
47021;SDS011;32779;52.264;6.154;2022-10-22T05:08:25;14.65;;;9.68;;
47021;SDS011;32779;52.264;6.154;2022-10-22T05:10:51;18.17;;;9.90;;
47021;SDS011;32779;52.264;6.154;2022-10-22T05:13:16;13.55;;;9.25;;
47021;SDS011;32779;52.264;6.154;2022-10-22T05:15:42;13.35;;;9.25;;
47021;SDS011;32779;52.264;6.154;2022-10-22T05:18:07;17.55;;;9.77;;
47021;SDS011;32779;52.264;6.154;2022-10-22T05:20:33;15.85;;;9.05;;
47021;SDS011;32779;52.264;6.154;2022-10-22T05:22:58;15.10;;;9.65;;
47021;SDS011;32779;52.264;6.154;2022-10-22T05:25:24;12.88;;;8.57;;
47021;SDS011;32779;52.264;6.154;2022-10-22T05:27:49;14.25;;;9.25;;
47021;SDS011;32779;52.264;6.154;2022-10-22T05:30:15;16.65;;;9.10;;
47021;SDS011;32779;52.264;6.154;2022-10-22T05:32:40;11.27;;;8.60;;
47021;SDS011;32779;52.264;6.154;2022-10-22T05:35:06;12.82;;;8.45;;
47021;SDS011;32779;52.264;6.154;2022-10-22T05:37:32;16.05;;;8.98;;
47021;SDS011;32779;52.264;6.154;2022-10-22T05:39:58;16.70;;;9.38;;
47021;SDS011;32779;52.264;6.154;2022-10-22T05:42:23;13.77;;;8.70;;
47021;SDS011;32779;52.264;6.154;2022-10-22T05:44:49;15.52;;;9.40;;
47021;SDS011;32779;52.264;6.154;2022-10-22T05:47:15;15.52;;;9.13;;
47021;SDS011;32779;52.264;6.154;2022-10-22T05:49:40;14.73;;;8.77;;
47021;SDS011;32779;52.264;6.154;2022-10-22T05:52:05;13.55;;;9.10;;
47021;SDS011;32779;52.264;6.154;2022-10-22T05:54:31;12.02;;;8.52;;
47021;SDS011;32779;52.264;6.154;2022-10-22T05:56:57;16.92;;;8.52;;
47021;SDS011;32779;52.264;6.154;2022-10-22T05:59:22;19.15;;;8.98;;
47021;SDS011;32779;52.264;6.154;2022-10-22T06:01:48;14.82;;;8.55;;
47021;SDS011;32779;52.264;6.154;2022-10-22T06:04:14;14.65;;;8.63;;
47021;SDS011;32779;52.264;6.154;2022-10-22T06:06:43;19.55;;;8.88;;
47021;SDS011;32779;52.264;6.154;2022-10-22T06:11:34;13.82;;;8.85;;
47021;SDS011;32779;52.264;6.154;2022-10-22T06:14:00;13.10;;;9.02;;
47021;SDS011;32779;52.264;6.154;2022-10-22T06:16:27;17.15;;;9.15;;
47021;SDS011;32779;52.264;6.154;2022-10-22T06:18:53;15.88;;;9.82;;
47021;SDS011;32779;52.264;6.154;2022-10-22T06:21:19;13.77;;;8.63;;
47021;SDS011;32779;52.264;6.154;2022-10-22T06:23:44;14.30;;;8.68;;
47021;SDS011;32779;52.264;6.154;2022-10-22T06:26:10;17.83;;;9.20;;
47021;SDS011;32779;52.264;6.154;2022-10-22T06:28:36;15.50;;;9.23;;
47021;SDS011;32779;52.264;6.154;2022-10-22T06:31:02;18.88;;;9.52;;
47021;SDS011;32779;52.264;6.154;2022-10-22T06:33:30;15.35;;;8.55;;
47021;SDS011;32779;52.264;6.154;2022-10-22T06:36:03;16.73;;;8.68;;
47021;SDS011;32779;52.264;6.154;2022-10-22T06:38:55;19.38;;;9.23;;
47021;SDS011;32779;52.264;6.154;2022-10-22T06:41:22;18.25;;;9.13;;
47021;SDS011;32779;52.264;6.154;2022-10-22T06:43:47;16.63;;;8.80;;
47021;SDS011;32779;52.264;6.154;2022-10-22T06:46:14;14.63;;;9.00;;
47021;SDS011;32779;52.264;6.154;2022-10-22T06:48:41;20.83;;;9.18;;
47021;SDS011;32779;52.264;6.154;2022-10-22T06:51:08;13.65;;;8.73;;
47021;SDS011;32779;52.264;6.154;2022-10-22T06:53:35;17.00;;;9.27;;
47021;SDS011;32779;52.264;6.154;2022-10-22T06:56:06;12.52;;;8.73;;
47021;SDS011;32779;52.264;6.154;2022-10-22T06:58:36;17.40;;;8.70;;
47021;SDS011;32779;52.264;6.154;2022-10-22T07:03:29;20.35;;;8.82;;
47021;SDS011;32779;52.264;6.154;2022-10-22T07:05:57;17.13;;;8.77;;
47021;SDS011;32779;52.264;6.154;2022-10-22T07:08:27;19.17;;;8.68;;
47021;SDS011;32779;52.264;6.154;2022-10-22T07:10:53;17.15;;;8.60;;
47021;SDS011;32779;52.264;6.154;2022-10-22T07:15:45;22.48;;;9.55;;
47021;SDS011;32779;52.264;6.154;2022-10-22T07:18:16;17.60;;;10.73;;
47021;SDS011;32779;52.264;6.154;2022-10-22T07:20:42;23.65;;;10.27;;
47021;SDS011;32779;52.264;6.154;2022-10-22T07:23:07;12.82;;;7.65;;
47021;SDS011;32779;52.264;6.154;2022-10-22T07:25:33;17.95;;;7.43;;
47021;SDS011;32779;52.264;6.154;2022-10-22T07:27:58;20.75;;;7.32;;
47021;SDS011;32779;52.264;6.154;2022-10-22T07:30:24;15.20;;;6.78;;
47021;SDS011;32779;52.264;6.154;2022-10-22T07:32:49;22.65;;;7.20;;
47021;SDS011;32779;52.264;6.154;2022-10-22T07:35:15;14.15;;;6.10;;
47021;SDS011;32779;52.264;6.154;2022-10-22T07:37:40;19.95;;;6.90;;
47021;SDS011;32779;52.264;6.154;2022-10-22T07:40:06;18.17;;;6.63;;
47021;SDS011;32779;52.264;6.154;2022-10-22T07:42:32;14.95;;;6.20;;
47021;SDS011;32779;52.264;6.154;2022-10-22T07:44:58;13.25;;;6.50;;
47021;SDS011;32779;52.264;6.154;2022-10-22T07:49:49;15.68;;;5.80;;
47021;SDS011;32779;52.264;6.154;2022-10-22T07:52:14;14.15;;;5.63;;
47021;SDS011;32779;52.264;6.154;2022-10-22T07:54:40;19.35;;;5.35;;
47021;SDS011;32779;52.264;6.154;2022-10-22T07:59:31;15.05;;;4.20;;
47021;SDS011;32779;52.264;6.154;2022-10-22T08:01:56;16.88;;;4.05;;
47021;SDS011;32779;52.264;6.154;2022-10-22T08:04:22;16.55;;;4.38;;
47021;SDS011;32779;52.264;6.154;2022-10-22T08:06:47;18.65;;;4.10;;
47021;SDS011;32779;52.264;6.154;2022-10-22T08:11:38;17.05;;;3.90;;
47021;SDS011;32779;52.264;6.154;2022-10-22T08:16:29;14.32;;;3.20;;
47021;SDS011;32779;52.264;6.154;2022-10-22T08:18:55;11.95;;;3.50;;
47021;SDS011;32779;52.264;6.154;2022-10-22T08:23:46;14.05;;;3.22;;
47021;SDS011;32779;52.264;6.154;2022-10-22T08:28:37;13.27;;;3.40;;
47021;SDS011;32779;52.264;6.154;2022-10-22T08:31:04;15.63;;;3.15;;
47021;SDS011;32779;52.264;6.154;2022-10-22T08:33:31;11.57;;;3.25;;
47021;SDS011;32779;52.264;6.154;2022-10-22T08:35:57;12.90;;;3.83;;
47021;SDS011;32779;52.264;6.154;2022-10-22T08:38:23;13.55;;;3.17;;
47021;SDS011;32779;52.264;6.154;2022-10-22T08:40:50;12.38;;;3.22;;
47021;SDS011;32779;52.264;6.154;2022-10-22T08:43:35;16.20;;;3.55;;
47021;SDS011;32779;52.264;6.154;2022-10-22T08:46:09;13.38;;;3.10;;
47021;SDS011;32779;52.264;6.154;2022-10-22T08:49:02;12.82;;;2.70;;
47021;SDS011;32779;52.264;6.154;2022-10-22T08:51:33;14.52;;;2.80;;
47021;SDS011;32779;52.264;6.154;2022-10-22T08:54:05;15.50;;;4.20;;
47021;SDS011;32779;52.264;6.154;2022-10-22T09:08:06;17.13;;;3.35;;
47021;SDS011;32779;52.264;6.154;2022-10-22T09:10:35;12.60;;;2.72;;
47021;SDS011;32779;52.264;6.154;2022-10-22T09:13:04;16.13;;;3.13;;
47021;SDS011;32779;52.264;6.154;2022-10-22T09:15:30;10.00;;;2.72;;
47021;SDS011;32779;52.264;6.154;2022-10-22T09:18:15;13.93;;;3.30;;
47021;SDS011;32779;52.264;6.154;2022-10-22T09:20:55;12.25;;;3.25;;
47021;SDS011;32779;52.264;6.154;2022-10-22T09:23:36;12.98;;;3.35;;
47021;SDS011;32779;52.264;6.154;2022-10-22T09:26:15;14.30;;;3.15;;
47021;SDS011;32779;52.264;6.154;2022-10-22T09:28:41;14.90;;;3.85;;
47021;SDS011;32779;52.264;6.154;2022-10-22T09:33:36;13.05;;;3.17;;
47021;SDS011;32779;52.264;6.154;2022-10-22T09:36:04;11.23;;;3.40;;
47021;SDS011;32779;52.264;6.154;2022-10-22T09:38:33;14.18;;;3.78;;
47021;SDS011;32779;52.264;6.154;2022-10-22T09:41:04;12.48;;;3.53;;
47021;SDS011;32779;52.264;6.154;2022-10-22T09:43:30;9.10;;;3.10;;
47021;SDS011;32779;52.264;6.154;2022-10-22T09:46:00;11.77;;;3.45;;
47021;SDS011;32779;52.264;6.154;2022-10-22T09:48:35;15.15;;;3.45;;
47021;SDS011;32779;52.264;6.154;2022-10-22T09:51:04;10.93;;;2.80;;
47021;SDS011;32779;52.264;6.154;2022-10-22T09:53:41;9.15;;;2.95;;
47021;SDS011;32779;52.264;6.154;2022-10-22T09:56:14;14.15;;;3.05;;
47021;SDS011;32779;52.264;6.154;2022-10-22T09:58:48;18.38;;;3.80;;
47021;SDS011;32779;52.264;6.154;2022-10-22T10:01:17;13.50;;;3.30;;
47021;SDS011;32779;52.264;6.154;2022-10-22T10:03:44;11.48;;;3.47;;
47021;SDS011;32779;52.264;6.154;2022-10-22T10:06:16;12.55;;;3.80;;
47021;SDS011;32779;52.264;6.154;2022-10-22T10:08:43;18.05;;;4.25;;
47021;SDS011;32779;52.264;6.154;2022-10-22T10:16:25;8.68;;;3.53;;
47021;SDS011;32779;52.264;6.154;2022-10-22T10:19:00;14.23;;;3.47;;
47021;SDS011;32779;52.264;6.154;2022-10-22T10:21:47;11.30;;;3.20;;
47021;SDS011;32779;52.264;6.154;2022-10-22T10:24:28;12.40;;;4.55;;
47021;SDS011;32779;52.264;6.154;2022-10-22T10:27:36;20.98;;;4.18;;
47021;SDS011;32779;52.264;6.154;2022-10-22T10:43:04;12.02;;;3.33;;
47021;SDS011;32779;52.264;6.154;2022-10-22T10:45:56;13.55;;;3.13;;
47021;SDS011;32779;52.264;6.154;2022-10-22T10:51:03;14.65;;;3.30;;
47021;SDS011;32779;52.264;6.154;2022-10-22T10:53:37;9.60;;;4.15;;
47021;SDS011;32779;52.264;6.154;2022-10-22T11:07:28;14.65;;;2.67;;
47021;SDS011;32779;52.264;6.154;2022-10-22T11:10:04;10.40;;;2.65;;
47021;SDS011;32779;52.264;6.154;2022-10-22T11:12:38;11.63;;;3.13;;
47021;SDS011;32779;52.264;6.154;2022-10-22T11:15:23;11.57;;;3.42;;
47021;SDS011;32779;52.264;6.154;2022-10-22T11:18:40;10.57;;;3.13;;
47021;SDS011;32779;52.264;6.154;2022-10-22T11:21:09;15.82;;;2.88;;
47021;SDS011;32779;52.264;6.154;2022-10-22T11:23:47;16.42;;;2.90;;
47021;SDS011;32779;52.264;6.154;2022-10-22T11:29:02;12.75;;;3.95;;
47021;SDS011;32779;52.264;6.154;2022-10-22T11:31:31;14.98;;;3.95;;
47021;SDS011;32779;52.264;6.154;2022-10-22T11:36:31;12.90;;;3.33;;
47021;SDS011;32779;52.264;6.154;2022-10-22T11:39:00;12.20;;;3.10;;
47021;SDS011;32779;52.264;6.154;2022-10-22T11:41:28;11.98;;;2.80;;
47021;SDS011;32779;52.264;6.154;2022-10-22T11:44:20;12.13;;;3.25;;
47021;SDS011;32779;52.264;6.154;2022-10-22T11:46:57;10.50;;;2.90;;
47021;SDS011;32779;52.264;6.154;2022-10-22T11:55:56;15.48;;;3.25;;
47021;SDS011;32779;52.264;6.154;2022-10-22T12:08:27;8.73;;;2.08;;
47021;SDS011;32779;52.264;6.154;2022-10-22T12:10:57;9.70;;;2.33;;
47021;SDS011;32779;52.264;6.154;2022-10-22T12:13:31;14.25;;;2.63;;
47021;SDS011;32779;52.264;6.154;2022-10-22T12:16:18;9.95;;;2.38;;
47021;SDS011;32779;52.264;6.154;2022-10-22T12:18:48;10.85;;;2.22;;
47021;SDS011;32779;52.264;6.154;2022-10-22T12:23:40;10.65;;;2.03;;
47021;SDS011;32779;52.264;6.154;2022-10-22T12:26:21;11.50;;;1.95;;
47021;SDS011;32779;52.264;6.154;2022-10-22T12:28:55;10.23;;;2.13;;
47021;SDS011;32779;52.264;6.154;2022-10-22T12:31:22;8.55;;;2.35;;
47021;SDS011;32779;52.264;6.154;2022-10-22T12:36:19;12.43;;;1.95;;
47021;SDS011;32779;52.264;6.154;2022-10-22T12:41:13;8.98;;;2.03;;
47021;SDS011;32779;52.264;6.154;2022-10-22T12:46:08;8.70;;;2.28;;
47021;SDS011;32779;52.264;6.154;2022-10-22T12:48:38;9.25;;;2.15;;
47021;SDS011;32779;52.264;6.154;2022-10-22T12:51:06;17.63;;;2.75;;
47021;SDS011;32779;52.264;6.154;2022-10-22T12:53:34;10.00;;;2.13;;
47021;SDS011;32779;52.264;6.154;2022-10-22T12:56:09;14.30;;;2.55;;
47021;SDS011;32779;52.264;6.154;2022-10-22T12:58:38;9.25;;;2.25;;
47021;SDS011;32779;52.264;6.154;2022-10-22T13:01:08;11.07;;;1.90;;
47021;SDS011;32779;52.264;6.154;2022-10-22T13:03:38;8.52;;;1.67;;
47021;SDS011;32779;52.264;6.154;2022-10-22T13:08:44;17.73;;;2.45;;
47021;SDS011;32779;52.264;6.154;2022-10-22T13:11:19;7.18;;;2.03;;
47021;SDS011;32779;52.264;6.154;2022-10-22T13:16:15;13.65;;;1.75;;
47021;SDS011;32779;52.264;6.154;2022-10-22T13:18:42;14.18;;;2.03;;
47021;SDS011;32779;52.264;6.154;2022-10-22T13:21:20;17.92;;;2.47;;
47021;SDS011;32779;52.264;6.154;2022-10-22T13:23:55;8.38;;;2.08;;
47021;SDS011;32779;52.264;6.154;2022-10-22T13:26:23;18.42;;;4.40;;
47021;SDS011;32779;52.264;6.154;2022-10-22T13:28:55;21.52;;;3.65;;
47021;SDS011;32779;52.264;6.154;2022-10-22T13:31:23;13.90;;;2.97;;
47021;SDS011;32779;52.264;6.154;2022-10-22T13:33:52;16.45;;;2.67;;
47021;SDS011;32779;52.264;6.154;2022-10-22T13:36:22;17.42;;;2.80;;
47021;SDS011;32779;52.264;6.154;2022-10-22T13:41:17;10.27;;;2.33;;
47021;SDS011;32779;52.264;6.154;2022-10-22T13:43:47;16.38;;;2.30;;
47021;SDS011;32779;52.264;6.154;2022-10-22T13:48:39;9.20;;;2.47;;
47021;SDS011;32779;52.264;6.154;2022-10-22T13:51:06;10.68;;;2.10;;
47021;SDS011;32779;52.264;6.154;2022-10-22T13:53:39;17.65;;;2.30;;
47021;SDS011;32779;52.264;6.154;2022-10-22T13:58:30;13.95;;;2.40;;
47021;SDS011;32779;52.264;6.154;2022-10-22T14:03:27;14.70;;;2.58;;
47021;SDS011;32779;52.264;6.154;2022-10-22T14:09:17;16.02;;;2.85;;
47021;SDS011;32779;52.264;6.154;2022-10-22T14:11:43;14.82;;;2.40;;
47021;SDS011;32779;52.264;6.154;2022-10-22T14:16:38;16.65;;;2.97;;
47021;SDS011;32779;52.264;6.154;2022-10-22T14:21:35;15.63;;;3.22;;
47021;SDS011;32779;52.264;6.154;2022-10-22T14:24:01;10.63;;;2.40;;
47021;SDS011;32779;52.264;6.154;2022-10-22T14:28:55;15.55;;;2.22;;
47021;SDS011;32779;52.264;6.154;2022-10-22T14:31:21;16.33;;;2.72;;
47021;SDS011;32779;52.264;6.154;2022-10-22T14:36:14;17.93;;;2.70;;
47021;SDS011;32779;52.264;6.154;2022-10-22T14:38:44;17.88;;;3.33;;
47021;SDS011;32779;52.264;6.154;2022-10-22T14:43:46;18.48;;;2.85;;
47021;SDS011;32779;52.264;6.154;2022-10-22T14:48:39;17.10;;;3.53;;
47021;SDS011;32779;52.264;6.154;2022-10-22T14:51:06;18.58;;;3.58;;
47021;SDS011;32779;52.264;6.154;2022-10-22T14:53:35;15.25;;;3.97;;
47021;SDS011;32779;52.264;6.154;2022-10-22T14:58:26;24.58;;;3.83;;
47021;SDS011;32779;52.264;6.154;2022-10-22T15:03:17;17.88;;;3.60;;
47021;SDS011;32779;52.264;6.154;2022-10-22T15:08:12;12.10;;;2.80;;
47021;SDS011;32779;52.264;6.154;2022-10-22T15:10:38;17.83;;;3.83;;
47021;SDS011;32779;52.264;6.154;2022-10-22T15:13:04;16.70;;;3.38;;
47021;SDS011;32779;52.264;6.154;2022-10-22T15:17:55;17.55;;;3.17;;
47021;SDS011;32779;52.264;6.154;2022-10-22T15:22:46;16.42;;;3.13;;
47021;SDS011;32779;52.264;6.154;2022-10-22T15:27:37;17.15;;;3.00;;
47021;SDS011;32779;52.264;6.154;2022-10-22T15:33:06;14.52;;;3.10;;
47021;SDS011;32779;52.264;6.154;2022-10-22T15:37:57;17.55;;;4.00;;
47021;SDS011;32779;52.264;6.154;2022-10-22T15:42:48;16.70;;;3.13;;
47021;SDS011;32779;52.264;6.154;2022-10-22T15:47:40;16.08;;;3.13;;
47021;SDS011;32779;52.264;6.154;2022-10-22T15:50:09;12.50;;;3.17;;
47021;SDS011;32779;52.264;6.154;2022-10-22T15:55:00;15.20;;;3.35;;
47021;SDS011;32779;52.264;6.154;2022-10-22T15:57:30;19.48;;;4.40;;
47021;SDS011;32779;52.264;6.154;2022-10-22T16:02:22;18.30;;;4.78;;
47021;SDS011;32779;52.264;6.154;2022-10-22T16:07:13;16.50;;;5.20;;
47021;SDS011;32779;52.264;6.154;2022-10-22T16:12:04;18.65;;;4.80;;
47021;SDS011;32779;52.264;6.154;2022-10-22T16:16:55;16.33;;;5.50;;
47021;SDS011;32779;52.264;6.154;2022-10-22T16:19:23;16.60;;;4.97;;
47021;SDS011;32779;52.264;6.154;2022-10-22T16:21:50;20.35;;;5.70;;
47021;SDS011;32779;52.264;6.154;2022-10-22T16:24:18;19.77;;;5.68;;
47021;SDS011;32779;52.264;6.154;2022-10-22T16:26:44;20.55;;;6.10;;
47021;SDS011;32779;52.264;6.154;2022-10-22T16:31:36;18.70;;;5.85;;
47021;SDS011;32779;52.264;6.154;2022-10-22T16:34:04;16.95;;;6.05;;
47021;SDS011;32779;52.264;6.154;2022-10-22T16:36:29;22.15;;;5.75;;
47021;SDS011;32779;52.264;6.154;2022-10-22T16:41:21;14.55;;;4.95;;
47021;SDS011;32779;52.264;6.154;2022-10-22T16:43:49;15.07;;;5.63;;
47021;SDS011;32779;52.264;6.154;2022-10-22T16:46:16;15.15;;;5.88;;
47021;SDS011;32779;52.264;6.154;2022-10-22T16:48:47;19.85;;;6.82;;
47021;SDS011;32779;52.264;6.154;2022-10-22T16:51:15;16.08;;;7.03;;
47021;SDS011;32779;52.264;6.154;2022-10-22T16:53:42;20.52;;;8.07;;
47021;SDS011;32779;52.264;6.154;2022-10-22T16:58:34;23.08;;;9.55;;
47021;SDS011;32779;52.264;6.154;2022-10-22T17:01:04;18.88;;;9.07;;
47021;SDS011;32779;52.264;6.154;2022-10-22T17:03:31;26.42;;;9.55;;
47021;SDS011;32779;52.264;6.154;2022-10-22T17:05:57;19.35;;;8.30;;
47021;SDS011;32779;52.264;6.154;2022-10-22T17:08:24;20.42;;;9.95;;
47021;SDS011;32779;52.264;6.154;2022-10-22T17:10:49;21.05;;;8.80;;
47021;SDS011;32779;52.264;6.154;2022-10-22T17:15:40;19.65;;;8.63;;
47021;SDS011;32779;52.264;6.154;2022-10-22T17:18:06;22.63;;;8.32;;
47021;SDS011;32779;52.264;6.154;2022-10-22T17:20:31;22.55;;;8.82;;
47021;SDS011;32779;52.264;6.154;2022-10-22T17:22:57;22.45;;;7.65;;
47021;SDS011;32779;52.264;6.154;2022-10-22T17:25:23;25.33;;;8.23;;
47021;SDS011;32779;52.264;6.154;2022-10-22T17:27:58;15.57;;;7.10;;
47021;SDS011;32779;52.264;6.154;2022-10-22T17:32:51;19.25;;;8.07;;
47021;SDS011;32779;52.264;6.154;2022-10-22T17:35:17;16.35;;;7.72;;
47021;SDS011;32779;52.264;6.154;2022-10-22T17:37:43;18.88;;;7.93;;
47021;SDS011;32779;52.264;6.154;2022-10-22T17:40:09;21.92;;;7.80;;
47021;SDS011;32779;52.264;6.154;2022-10-22T17:42:35;16.60;;;8.13;;
47021;SDS011;32779;52.264;6.154;2022-10-22T17:45:01;17.77;;;8.40;;
47021;SDS011;32779;52.264;6.154;2022-10-22T17:47:26;21.75;;;9.50;;
47021;SDS011;32779;52.264;6.154;2022-10-22T17:52:17;21.05;;;9.55;;
47021;SDS011;32779;52.264;6.154;2022-10-22T17:54:43;23.30;;;9.52;;
47021;SDS011;32779;52.264;6.154;2022-10-22T17:57:09;21.52;;;9.50;;
47021;SDS011;32779;52.264;6.154;2022-10-22T17:59:36;20.83;;;9.75;;
47021;SDS011;32779;52.264;6.154;2022-10-22T18:02:02;24.40;;;9.95;;
47021;SDS011;32779;52.264;6.154;2022-10-22T18:04:28;19.98;;;8.85;;
47021;SDS011;32779;52.264;6.154;2022-10-22T18:06:55;18.95;;;9.27;;
47021;SDS011;32779;52.264;6.154;2022-10-22T18:09:21;19.25;;;8.38;;
47021;SDS011;32779;52.264;6.154;2022-10-22T18:11:48;18.38;;;8.60;;
47021;SDS011;32779;52.264;6.154;2022-10-22T18:14:16;20.83;;;8.63;;
47021;SDS011;32779;52.264;6.154;2022-10-22T18:16:42;20.13;;;9.82;;
47021;SDS011;32779;52.264;6.154;2022-10-22T18:21:35;22.90;;;8.57;;